createdAt,value
2023-06-09T00:00:56.428Z,19.10
2023-06-09T00:03:23.477Z,19.10
2023-06-09T00:05:50.400Z,19.00
2023-06-09T00:08:17.278Z,18.90
2023-06-09T00:10:43.994Z,18.90
2023-06-09T00:13:11.035Z,18.90
2023-06-09T00:15:38.065Z,18.90
2023-06-09T00:18:05.311Z,18.60
2023-06-09T00:20:34.751Z,18.40
2023-06-09T00:23:02.668Z,18.40
2023-06-09T00:25:29.333Z,18.40
2023-06-09T00:27:55.876Z,18.20
2023-06-09T00:30:38.144Z,18.30
2023-06-09T00:33:06.495Z,18.30
2023-06-09T00:35:33.193Z,18.20
2023-06-09T00:37:59.691Z,18.20
2023-06-09T00:40:26.321Z,18.20
2023-06-09T00:42:55.033Z,18.20
2023-06-09T00:45:21.692Z,18.10
2023-06-09T00:47:48.562Z,18.10
2023-06-09T00:50:20.984Z,18.20
2023-06-09T00:52:48.209Z,18.10
2023-06-09T00:55:18.209Z,17.90
2023-06-09T00:57:47.314Z,17.80
2023-06-09T01:00:17.262Z,17.90
2023-06-09T01:02:44.486Z,18.00
2023-06-09T01:05:13.789Z,17.80
2023-06-09T01:07:47.447Z,17.60
2023-06-09T01:10:31.984Z,17.50
2023-06-09T01:13:17.473Z,17.50
2023-06-09T01:15:55.194Z,17.50
2023-06-09T01:18:25.933Z,17.50
2023-06-09T01:21:07.633Z,17.50
2023-06-09T01:23:45.733Z,17.40
2023-06-09T01:26:13.875Z,17.40
2023-06-09T01:28:42.126Z,17.40
2023-06-09T01:31:12.663Z,17.40
2023-06-09T01:33:39.445Z,17.40
2023-06-09T01:36:06.951Z,17.40
2023-06-09T01:38:33.601Z,17.30
2023-06-09T01:41:00.446Z,17.10
2023-06-09T01:43:27.077Z,17.10
2023-06-09T01:45:53.729Z,17.20
2023-06-09T01:48:31.728Z,17.10
2023-06-09T01:51:07.639Z,17.10
2023-06-09T01:53:37.414Z,17.00
2023-06-09T01:56:07.197Z,17.10
2023-06-09T01:58:43.572Z,16.90
2023-06-09T02:01:12.166Z,16.70
2023-06-09T02:03:41.903Z,16.70
2023-06-09T02:06:11.365Z,16.80
2023-06-09T02:08:38.603Z,16.80
2023-06-09T02:11:05.886Z,16.80
2023-06-09T02:13:32.544Z,16.70
2023-06-09T02:15:59.097Z,16.60
2023-06-09T02:18:26.136Z,16.60
2023-06-09T02:20:53.430Z,16.60
2023-06-09T02:23:23.887Z,16.60
2023-06-09T02:25:50.459Z,16.50
2023-06-09T02:28:17.880Z,16.50
2023-06-09T02:30:46.030Z,16.50
2023-06-09T02:33:15.554Z,16.50
2023-06-09T02:35:42.343Z,16.60
2023-06-09T02:38:10.271Z,16.60
2023-06-09T02:40:36.903Z,16.40
2023-06-09T02:43:03.563Z,16.40
2023-06-09T02:45:30.254Z,16.50
2023-06-09T02:47:57.596Z,16.50
2023-06-09T02:50:24.508Z,16.60
2023-06-09T02:52:56.014Z,16.50
2023-06-09T02:55:23.207Z,16.60
2023-06-09T02:57:51.619Z,16.70
2023-06-09T03:00:21.284Z,16.70
2023-06-09T03:02:52.437Z,16.70
2023-06-09T03:05:22.080Z,16.60
2023-06-09T03:07:50.731Z,16.30
2023-06-09T03:10:17.515Z,16.30
2023-06-09T03:12:45.763Z,16.20
2023-06-09T03:15:12.766Z,16.30
2023-06-09T03:17:42.821Z,16.30
2023-06-09T03:20:10.717Z,16.40
2023-06-09T03:22:38.011Z,16.30
2023-06-09T03:25:06.020Z,16.30
2023-06-09T03:27:32.564Z,16.30
2023-06-09T03:29:59.143Z,16.30
2023-06-09T03:32:25.704Z,16.20
2023-06-09T03:34:54.094Z,16.30
2023-06-09T03:37:20.966Z,16.40
2023-06-09T03:39:47.545Z,16.50
2023-06-09T03:42:18.709Z,16.40
2023-06-09T03:44:45.294Z,16.40
2023-06-09T03:47:11.932Z,16.30
2023-06-09T03:49:39.918Z,16.30
2023-06-09T03:52:07.505Z,16.30
2023-06-09T03:54:35.797Z,16.40
2023-06-09T03:57:02.925Z,16.40
2023-06-09T03:59:29.926Z,16.50
2023-06-09T04:01:56.705Z,16.60
2023-06-09T04:04:24.493Z,16.70
2023-06-09T04:06:51.210Z,16.60
2023-06-09T04:09:21.585Z,16.60
2023-06-09T04:11:48.164Z,16.60
2023-06-09T04:14:14.839Z,16.70
2023-06-09T04:16:42.704Z,16.70
2023-06-09T04:19:10.062Z,16.70
2023-06-09T04:21:38.455Z,16.80
2023-06-09T04:24:05.732Z,16.90
2023-06-09T04:26:33.902Z,16.90
2023-06-09T04:29:00.924Z,16.90
2023-06-09T04:31:35.101Z,16.90
2023-06-09T04:34:11.346Z,17.10
2023-06-09T04:36:41.074Z,17.20
2023-06-09T04:39:10.516Z,17.30
2023-06-09T04:41:38.778Z,17.40
2023-06-09T04:44:07.385Z,17.50
2023-06-09T04:46:39.327Z,17.30
2023-06-09T04:49:10.646Z,17.40
2023-06-09T04:51:47.640Z,17.50
2023-06-09T04:54:18.384Z,17.50
2023-06-09T04:56:53.658Z,17.60
2023-06-09T04:59:23.233Z,17.70
2023-06-09T05:01:49.834Z,17.80
2023-06-09T05:04:18.371Z,17.90
2023-06-09T05:06:45.783Z,17.90
2023-06-09T05:09:13.669Z,18.00
2023-06-09T05:11:41.645Z,18.00
2023-06-09T05:14:08.877Z,18.20
2023-06-09T05:16:36.224Z,18.30
2023-06-09T05:19:05.676Z,18.20
2023-06-09T05:21:32.282Z,18.40
2023-06-09T05:23:59.055Z,18.60
2023-06-09T05:26:26.696Z,18.70
2023-06-09T05:28:53.964Z,18.70
2023-06-09T05:31:21.112Z,18.70
2023-06-09T05:33:48.069Z,18.70
2023-06-09T05:36:14.596Z,18.80
2023-06-09T05:38:47.074Z,18.90
2023-06-09T05:41:15.749Z,18.90
2023-06-09T05:43:42.375Z,19.00
2023-06-09T05:46:09.009Z,19.10
2023-06-09T05:48:35.524Z,19.10
2023-06-09T05:51:02.022Z,19.30
2023-06-09T05:53:28.741Z,19.30
2023-06-09T05:55:55.389Z,19.40
2023-06-09T05:58:21.926Z,19.60
2023-06-09T06:00:50.146Z,19.50
2023-06-09T06:03:17.010Z,19.60
2023-06-09T06:05:45.896Z,19.80
2023-06-09T06:08:12.518Z,19.80
2023-06-09T06:10:39.029Z,19.80
2023-06-09T06:13:05.671Z,19.80
2023-06-09T06:15:32.233Z,20.00
2023-06-09T06:17:58.809Z,20.10
2023-06-09T06:20:25.722Z,20.20
2023-06-09T06:22:52.449Z,20.30
2023-06-09T06:25:19.357Z,20.30
2023-06-09T06:27:48.369Z,20.30
2023-06-09T06:30:15.820Z,20.40
2023-06-09T06:32:53.316Z,20.60
2023-06-09T06:35:27.834Z,20.70
2023-06-09T06:37:54.595Z,20.70
2023-06-09T06:40:21.336Z,20.80
2023-06-09T06:42:48.042Z,20.90
2023-06-09T06:45:23.642Z,20.90
2023-06-09T06:47:50.947Z,20.90
2023-06-09T06:50:18.040Z,20.90
2023-06-09T06:52:44.695Z,20.90
2023-06-09T06:55:11.390Z,21.00
2023-06-09T06:57:39.277Z,21.10
2023-06-09T07:00:10.940Z,21.20
2023-06-09T07:02:38.823Z,21.20
2023-06-09T07:05:07.852Z,21.30
2023-06-09T07:07:34.475Z,21.30
2023-06-09T07:10:02.083Z,21.40
2023-06-09T07:12:28.708Z,21.50
2023-06-09T07:14:59.929Z,21.80
2023-06-09T07:17:26.885Z,21.70
2023-06-09T07:19:53.521Z,21.70
2023-06-09T07:22:20.154Z,21.80
2023-06-09T07:24:47.551Z,21.90
2023-06-09T07:27:14.174Z,22.00
2023-06-09T07:29:42.780Z,22.00
2023-06-09T07:32:10.591Z,22.00
2023-06-09T07:34:38.569Z,22.10
2023-06-09T07:37:06.450Z,22.30
2023-06-09T07:39:36.547Z,22.40
2023-06-09T07:42:03.508Z,22.50
2023-06-09T07:44:30.377Z,22.50
2023-06-09T07:46:57.029Z,22.50
2023-06-09T07:49:23.568Z,22.60
2023-06-09T07:51:51.113Z,22.70
2023-06-09T07:54:17.980Z,22.80
2023-06-09T07:56:49.696Z,23.00
2023-06-09T07:59:19.996Z,23.00
2023-06-09T08:01:47.281Z,23.10
2023-06-09T08:04:14.769Z,23.20
2023-06-09T08:06:41.404Z,23.20
2023-06-09T08:09:09.844Z,23.30
2023-06-09T08:11:39.629Z,23.30
2023-06-09T08:14:07.677Z,23.40
2023-06-09T08:16:34.346Z,23.50
2023-06-09T08:19:01.369Z,23.70
2023-06-09T08:21:27.875Z,23.80
2023-06-09T08:23:54.412Z,23.90
2023-06-09T08:26:21.006Z,24.10
2023-06-09T08:28:47.595Z,24.40
2023-06-09T08:31:14.204Z,24.40
2023-06-09T08:33:40.971Z,24.60
2023-06-09T08:36:08.490Z,24.60
2023-06-09T08:38:36.601Z,24.60
2023-06-09T08:41:09.979Z,24.50
2023-06-09T08:43:36.703Z,24.50
2023-06-09T08:46:07.805Z,24.50
2023-06-09T08:48:36.538Z,24.70
2023-06-09T08:51:03.181Z,24.90
2023-06-09T08:53:30.524Z,25.10
2023-06-09T08:55:59.428Z,25.30
2023-06-09T08:58:27.459Z,25.40
2023-06-09T09:00:54.504Z,25.60
2023-06-09T09:03:21.779Z,25.70
2023-06-09T09:05:48.577Z,25.70
2023-06-09T09:08:15.374Z,25.80
2023-06-09T09:10:42.832Z,25.70
2023-06-09T09:13:11.324Z,26.00
2023-06-09T09:15:42.180Z,26.00
2023-06-09T09:18:11.970Z,26.10
2023-06-09T09:20:40.085Z,26.10
2023-06-09T09:23:08.830Z,26.20
2023-06-09T09:25:35.735Z,26.30
2023-06-09T09:28:10.299Z,26.40
2023-06-09T09:30:57.263Z,26.50
2023-06-09T09:33:28.302Z,26.50
2023-06-09T09:35:58.010Z,26.60
2023-06-09T09:38:26.577Z,26.80
2023-06-09T09:40:57.774Z,26.70
2023-06-09T09:43:31.607Z,26.80
2023-06-09T09:46:05.939Z,27.00
2023-06-09T09:48:34.298Z,26.90
2023-06-09T09:51:01.731Z,27.00
2023-06-09T09:53:28.735Z,27.20
2023-06-09T09:55:57.537Z,27.20
2023-06-09T09:58:32.941Z,27.30
2023-06-09T10:01:04.184Z,27.10
2023-06-09T10:03:32.303Z,27.10
2023-06-09T10:06:01.888Z,27.00
2023-06-09T10:08:29.999Z,27.00
2023-06-09T10:10:57.713Z,27.20
2023-06-09T10:13:27.360Z,27.20
2023-06-09T10:15:55.061Z,27.20
2023-06-09T10:18:23.085Z,27.40
2023-06-09T10:20:51.580Z,27.50
2023-06-09T10:23:18.655Z,27.60
2023-06-09T10:25:52.116Z,27.70
2023-06-09T10:28:19.928Z,27.40
2023-06-09T10:30:48.891Z,27.40
2023-06-09T10:33:40.182Z,27.70
2023-06-09T10:36:07.189Z,27.70
2023-06-09T10:38:45.181Z,27.70
2023-06-09T10:41:19.971Z,27.80
2023-06-09T10:43:57.846Z,27.90
2023-06-09T10:46:43.812Z,27.80
2023-06-09T10:49:26.040Z,27.80
2023-06-09T10:51:53.405Z,27.90
2023-06-09T10:54:24.684Z,28.10
2023-06-09T10:57:01.377Z,28.10
2023-06-09T10:59:27.971Z,28.00
2023-06-09T11:02:03.666Z,28.20
2023-06-09T11:04:44.936Z,28.20
2023-06-09T11:07:18.433Z,28.20
2023-06-09T11:09:48.182Z,28.30
2023-06-09T11:12:36.829Z,28.40
2023-06-09T11:15:04.469Z,28.20
2023-06-09T11:17:35.324Z,28.30
2023-06-09T11:20:09.188Z,28.60
2023-06-09T11:23:00.563Z,28.70
2023-06-09T11:25:28.881Z,28.60
2023-06-09T11:27:58.483Z,28.50
2023-06-09T11:30:31.089Z,28.40
2023-06-09T11:32:59.691Z,28.70
2023-06-09T11:35:32.598Z,28.70
2023-06-09T11:38:00.683Z,28.80
2023-06-09T11:40:29.934Z,29.00
2023-06-09T11:42:57.904Z,29.10
2023-06-09T11:45:26.009Z,29.20
2023-06-09T11:47:58.010Z,29.20
2023-06-09T11:50:26.783Z,29.40
2023-06-09T11:53:07.380Z,29.50
2023-06-09T11:55:34.019Z,29.60
2023-06-09T11:58:03.771Z,29.70
2023-06-09T12:00:31.802Z,29.70
2023-06-09T12:02:58.721Z,29.80
2023-06-09T12:05:30.004Z,29.90
2023-06-09T12:07:56.936Z,29.80
2023-06-09T12:10:29.979Z,29.80
2023-06-09T12:12:58.340Z,29.60
2023-06-09T12:15:28.203Z,29.40
2023-06-09T12:17:58.260Z,29.30
2023-06-09T12:20:33.270Z,29.40
2023-06-09T12:23:07.731Z,29.50
2023-06-09T12:25:39.045Z,29.60
2023-06-09T12:28:25.427Z,29.90
2023-06-09T12:30:54.535Z,30.00
2023-06-09T12:33:33.581Z,29.80
2023-06-09T12:36:12.058Z,29.50
2023-06-09T12:38:40.549Z,29.40
2023-06-09T12:41:09.956Z,29.30
2023-06-09T12:44:00.448Z,29.40
2023-06-09T12:46:36.056Z,29.30
2023-06-09T12:49:03.947Z,29.20
2023-06-09T12:51:31.381Z,29.00
2023-06-09T12:53:59.270Z,29.20
2023-06-09T12:56:27.240Z,29.30
2023-06-09T12:58:57.131Z,29.50
2023-06-09T13:01:27.043Z,29.40
2023-06-09T13:03:53.944Z,29.20
2023-06-09T13:06:20.514Z,29.50
2023-06-09T13:08:47.071Z,29.80
2023-06-09T13:11:13.710Z,29.90
2023-06-09T13:13:41.394Z,30.10
2023-06-09T13:16:08.894Z,30.20
2023-06-09T13:18:37.921Z,30.20
2023-06-09T13:21:06.547Z,30.00
2023-06-09T13:23:33.091Z,29.90
2023-06-09T13:25:59.641Z,30.00
2023-06-09T13:28:26.405Z,29.90
2023-06-09T13:30:52.947Z,30.20
2023-06-09T13:33:20.434Z,30.30
2023-06-09T13:35:47.566Z,30.50
2023-06-09T13:38:15.717Z,30.70
2023-06-09T13:40:46.539Z,31.10
2023-06-09T13:43:15.054Z,31.30
2023-06-09T13:45:42.435Z,31.10
2023-06-09T13:48:09.481Z,31.00
2023-06-09T13:50:36.932Z,30.80
2023-06-09T13:53:05.870Z,30.80
2023-06-09T13:55:32.399Z,30.70
2023-06-09T13:57:58.995Z,30.50
2023-06-09T14:00:25.725Z,30.60
2023-06-09T14:02:52.815Z,30.90
2023-06-09T14:05:23.425Z,31.10
2023-06-09T14:07:50.103Z,31.10
2023-06-09T14:10:16.889Z,30.90
2023-06-09T14:12:49.494Z,30.70
2023-06-09T14:15:24.288Z,30.80
2023-06-09T14:17:55.258Z,30.40
2023-06-09T14:20:23.019Z,30.20
2023-06-09T14:22:53.460Z,30.00
2023-06-09T14:25:22.982Z,30.10
2023-06-09T14:27:51.324Z,30.20
2023-06-09T14:30:22.532Z,30.30
2023-06-09T14:32:50.854Z,30.50
2023-06-09T14:35:23.758Z,30.60
2023-06-09T14:37:56.063Z,30.70
2023-06-09T14:40:24.390Z,30.90
2023-06-09T14:42:51.644Z,30.90
2023-06-09T14:45:21.841Z,30.80
2023-06-09T14:47:57.211Z,30.60
2023-06-09T14:50:36.662Z,30.30
2023-06-09T14:53:03.824Z,30.10
2023-06-09T14:55:32.845Z,30.10
2023-06-09T14:58:02.670Z,30.20
2023-06-09T15:00:31.305Z,30.30
2023-06-09T15:02:59.692Z,30.30
2023-06-09T15:05:28.841Z,30.50
2023-06-09T15:07:58.055Z,30.70
2023-06-09T15:10:26.205Z,30.70
2023-06-09T15:12:53.124Z,30.90
2023-06-09T15:15:21.772Z,30.90
2023-06-09T15:17:48.369Z,30.80
2023-06-09T15:20:15.626Z,30.80
2023-06-09T15:22:42.246Z,31.00
2023-06-09T15:25:10.503Z,31.00
2023-06-09T15:27:38.343Z,31.00
2023-06-09T15:30:07.051Z,31.20
2023-06-09T15:32:34.599Z,31.20
2023-06-09T15:35:01.210Z,30.60
2023-06-09T15:37:27.767Z,30.40
2023-06-09T15:39:54.261Z,30.20
2023-06-09T15:42:20.832Z,30.30
2023-06-09T15:44:47.387Z,30.40
2023-06-09T15:47:14.190Z,30.30
2023-06-09T15:49:40.752Z,30.30
2023-06-09T15:52:07.633Z,30.40
2023-06-09T15:54:34.162Z,30.40
2023-06-09T15:57:01.794Z,30.50
2023-06-09T15:59:31.542Z,30.60
2023-06-09T16:01:58.068Z,30.70
2023-06-09T16:04:25.093Z,30.80
2023-06-09T16:06:51.824Z,30.90
2023-06-09T16:09:18.670Z,31.10
2023-06-09T16:11:45.511Z,31.30
2023-06-09T16:14:12.335Z,31.40
2023-06-09T16:16:39.004Z,31.40
2023-06-09T16:19:05.629Z,31.40
2023-06-09T16:21:34.083Z,31.50
2023-06-09T16:24:00.723Z,31.50
2023-06-09T16:26:28.344Z,31.60
2023-06-09T16:28:55.234Z,31.70
2023-06-09T16:31:21.930Z,31.80
2023-06-09T16:33:48.808Z,31.90
2023-06-09T16:36:15.434Z,31.90
2023-06-09T16:38:43.418Z,31.90
2023-06-09T16:41:11.550Z,32.00
2023-06-09T16:43:39.415Z,32.10
2023-06-09T16:46:06.630Z,31.50
2023-06-09T16:48:36.562Z,31.60
2023-06-09T16:51:04.231Z,31.80
2023-06-09T16:53:31.353Z,31.80
2023-06-09T16:55:58.331Z,31.80
2023-06-09T16:58:24.916Z,31.70
2023-06-09T17:00:51.444Z,31.70
2023-06-09T17:03:18.137Z,32.00
2023-06-09T17:05:44.891Z,32.30
2023-06-09T17:08:11.756Z,32.50
2023-06-09T17:10:38.435Z,32.60
2023-06-09T17:13:06.145Z,32.60
2023-06-09T17:15:33.326Z,31.70
2023-06-09T17:18:00.093Z,30.90
2023-06-09T17:20:26.983Z,31.10
2023-06-09T17:22:53.789Z,31.60
2023-06-09T17:25:20.493Z,31.90
2023-06-09T17:27:47.846Z,32.40
2023-06-09T17:30:15.516Z,32.70
2023-06-09T17:32:43.568Z,33.00
2023-06-09T17:35:11.568Z,33.20
2023-06-09T17:37:41.216Z,33.40
2023-06-09T17:40:09.693Z,33.60
2023-06-09T17:42:36.432Z,33.70
2023-06-09T17:45:03.078Z,33.70
2023-06-09T17:47:31.180Z,33.90
2023-06-09T17:49:58.546Z,34.10
2023-06-09T17:52:25.088Z,34.00
2023-06-09T17:54:52.263Z,34.10
2023-06-09T17:57:18.864Z,34.30
2023-06-09T17:59:45.449Z,34.40
2023-06-09T18:02:12.179Z,34.40
2023-06-09T18:04:38.812Z,34.40
2023-06-09T18:07:08.709Z,34.30
2023-06-09T18:09:35.576Z,33.70
2023-06-09T18:12:02.277Z,32.90
2023-06-09T18:14:29.680Z,32.10
2023-06-09T18:16:56.283Z,31.50
2023-06-09T18:19:22.820Z,30.90
2023-06-09T18:21:49.403Z,30.50
2023-06-09T18:24:16.017Z,30.00
2023-06-09T18:26:42.693Z,29.60
2023-06-09T18:29:09.751Z,29.30
2023-06-09T18:31:36.598Z,29.00
2023-06-09T18:34:03.648Z,28.90
2023-06-09T18:36:32.683Z,28.70
2023-06-09T18:39:00.148Z,28.50
2023-06-09T18:41:27.281Z,28.40
2023-06-09T18:44:00.172Z,28.40
2023-06-09T18:46:27.913Z,28.30
2023-06-09T18:49:01.682Z,28.10
2023-06-09T18:51:28.852Z,28.00
2023-06-09T18:53:55.499Z,27.80
2023-06-09T18:56:22.267Z,27.70
2023-06-09T18:58:49.011Z,27.50
2023-06-09T19:01:15.618Z,27.40
2023-06-09T19:03:42.463Z,27.30
2023-06-09T19:06:09.436Z,27.10
2023-06-09T19:08:36.139Z,27.00
2023-06-09T19:11:02.783Z,26.80
2023-06-09T19:13:29.373Z,26.70
2023-06-09T19:15:56.328Z,26.70
2023-06-09T19:18:23.466Z,26.60
2023-06-09T19:20:51.098Z,26.50
2023-06-09T19:23:17.850Z,26.40
2023-06-09T19:25:44.818Z,26.30
2023-06-09T19:28:11.436Z,26.20
2023-06-09T19:30:39.221Z,26.20
2023-06-09T19:33:07.935Z,26.10
2023-06-09T19:35:34.908Z,26.00
2023-06-09T19:38:01.489Z,25.90
2023-06-09T19:40:28.126Z,25.80
2023-06-09T19:42:54.680Z,25.70
2023-06-09T19:45:21.235Z,25.70
2023-06-09T19:47:47.821Z,25.60
2023-06-09T19:50:14.709Z,25.60
2023-06-09T19:52:41.514Z,25.50
2023-06-09T19:55:08.792Z,25.40
2023-06-09T19:57:35.976Z,25.40
2023-06-09T20:00:06.340Z,25.40
2023-06-09T20:02:33.732Z,25.50
2023-06-09T20:05:00.509Z,25.40
2023-06-09T20:07:27.337Z,25.30
2023-06-09T20:09:54.059Z,25.20
2023-06-09T20:12:20.973Z,25.20
2023-06-09T20:14:50.947Z,25.10
2023-06-09T20:17:18.631Z,25.10
2023-06-09T20:19:46.059Z,25.00
2023-06-09T20:22:12.696Z,25.00
2023-06-09T20:24:39.372Z,24.90
2023-06-09T20:27:06.835Z,24.90
2023-06-09T20:29:37.980Z,24.90
2023-06-09T20:32:07.886Z,24.90
2023-06-09T20:34:34.659Z,24.80
2023-06-09T20:37:01.882Z,24.80
2023-06-09T20:39:28.672Z,24.80
2023-06-09T20:41:55.786Z,24.70
2023-06-09T20:44:23.344Z,24.60
2023-06-09T20:46:50.783Z,24.60
2023-06-09T20:49:17.498Z,24.50
2023-06-09T20:51:44.617Z,24.50
2023-06-09T20:54:20.272Z,24.40
2023-06-09T20:56:47.313Z,24.30
2023-06-09T20:59:14.367Z,24.20
2023-06-09T21:01:41.175Z,24.20
2023-06-09T21:04:08.570Z,24.20
2023-06-09T21:06:38.309Z,24.20
2023-06-09T21:09:05.717Z,24.20
2023-06-09T21:11:32.515Z,24.20
2023-06-09T21:13:59.592Z,24.20
2023-06-09T21:16:26.372Z,24.10
2023-06-09T21:18:53.120Z,24.10
2023-06-09T21:21:20.005Z,24.10
2023-06-09T21:23:46.767Z,24.00
2023-06-09T21:26:13.393Z,24.00
2023-06-09T21:28:43.618Z,24.00
2023-06-09T21:31:11.955Z,24.00
2023-06-09T21:33:38.800Z,24.00
2023-06-09T21:36:09.484Z,24.00
2023-06-09T21:38:36.722Z,24.00
2023-06-09T21:41:03.509Z,24.00
2023-06-09T21:43:30.397Z,23.90
2023-06-09T21:45:57.160Z,23.80
2023-06-09T21:48:26.689Z,23.70
2023-06-09T21:50:53.241Z,23.60
2023-06-09T21:53:19.782Z,23.50
2023-06-09T21:55:46.538Z,23.40
2023-06-09T21:58:13.418Z,23.40
2023-06-09T22:00:41.414Z,23.30
2023-06-09T22:03:09.431Z,23.30
2023-06-09T22:05:36.388Z,23.30
2023-06-09T22:08:02.993Z,23.30
2023-06-09T22:10:29.590Z,23.40
2023-06-09T22:12:56.240Z,23.40
2023-06-09T22:15:22.887Z,23.30
2023-06-09T22:17:49.575Z,23.20
2023-06-09T22:20:17.416Z,23.10
2023-06-09T22:22:44.243Z,22.90
2023-06-09T22:25:11.420Z,22.70
2023-06-09T22:27:38.360Z,22.60
2023-06-09T22:30:05.456Z,22.50
2023-06-09T22:32:32.695Z,22.40
2023-06-09T22:34:59.375Z,22.30
2023-06-09T22:37:26.177Z,22.20
2023-06-09T22:39:53.574Z,22.10
2023-06-09T22:42:20.467Z,22.10
2023-06-09T22:44:47.228Z,22.00
2023-06-09T22:47:14.592Z,21.90
2023-06-09T22:50:01.372Z,21.90
2023-06-09T22:52:28.562Z,21.90
2023-06-09T22:54:55.100Z,21.80
2023-06-09T22:57:21.678Z,21.70
2023-06-09T22:59:48.174Z,21.70
2023-06-09T23:02:14.948Z,21.60
2023-06-09T23:04:43.049Z,21.50
2023-06-09T23:07:09.635Z,21.40
2023-06-09T23:09:36.237Z,21.40
2023-06-09T23:12:03.019Z,21.30
2023-06-09T23:14:29.550Z,21.30
2023-06-09T23:16:56.364Z,21.30
2023-06-09T23:19:23.283Z,21.20
2023-06-09T23:21:51.613Z,21.10
2023-06-09T23:24:18.438Z,21.00
2023-06-09T23:26:45.092Z,20.90
2023-06-09T23:29:11.671Z,20.90
2023-06-09T23:31:38.285Z,20.90
2023-06-09T23:34:04.835Z,20.80
2023-06-09T23:36:31.420Z,20.80
2023-06-09T23:38:57.975Z,20.80
2023-06-09T23:41:24.496Z,20.80
2023-06-09T23:43:51.041Z,20.70
2023-06-09T23:46:17.701Z,20.70
2023-06-09T23:48:44.227Z,20.70
2023-06-09T23:51:12.421Z,20.60
2023-06-09T23:53:38.983Z,20.60
2023-06-09T23:56:05.654Z,20.60
2023-06-09T23:58:32.677Z,20.40
